De Soto, WI (54624)

9:07 AM CDT on September 02, 2014 (GMT -0500)
DeSoto WI | Change Station
CLOSE
Current Station
Personal Weather Station
Location: DeSoto, WI
Elevation: 778 ft
Nearby Weather Stations

Elev 778 ft 43.44 °N, 91.21 °W | Updated 1 second ago

Rain
Rain
59.4 °F
Feels Like 59.4 °F
N
0.0
Wind Variable Wind from West
Gusts 0.0 mph

Today
High -- | Low -- °F
--% Chance of Precip.
Yesterday
High -- | Low -- °F
Precip. -- in
6:29 AM 7:38 PM
First Quarter, 51% visible
Pressure 29.92 in
Visibility 7.0 miles
Clouds Scattered Clouds 3900 ft
Mostly Cloudy 6000 ft
Overcast 8000 ft
Dew Point 58 °F
Humidity 94%
Rainfall 0.07 in
Snow Depth Not available.
UV 1 out of 12
Pollen 8.20 out of 12
Air Quality Not available.
Flu Activity Not available.
METAR KY51 021355Z AUTO 27007KT 7SM SCT039 BKN060 OVC080 15/15 A2992 RMK AO1 P0003 T01480148

More Conditions Fewer Conditions

Pressure 29.92 in
Visibility 7.0 miles
Clouds Scattered Clouds 3900 ft
Mostly Cloudy 6000 ft
Overcast 8000 ft
Dew Point 58 °F
Humidity 94%
Rainfall 0.07 in
Snow Depth Not available.
UV 1 out of 12
Pollen 8.20 out of 12
Air Quality Not available.
Flu Activity Not available.
METAR KY51 021355Z AUTO 27007KT 7SM SCT039 BKN060 OVC080 15/15 A2992 RMK AO1 P0003 T01480148

More Conditions Fewer Conditions

10-Day Weather Forecast

Almanac

Astronomy

Sep. 02, 2014 Rise Set
Actual Time 6:29 AM CDT 7:38 PM CDT
Civil Twilight 6:00 AM CDT 8:07 PM CDT
Nautical Twilight 5:25 AM CDT 8:42 PM CDT
Astronomical Twilight 4:48 AM CDT 9:19 PM CDT
Moon 2:26 PM CDT No Moon Set
Length of Visible Light 14h 07m
Length of Day
13h 08m
Tomorrow will be 2m 51s shorter.
First Quarter, 51% of the Moon is Illuminated
Today
First Quarter
Sep 8
Full
Sep 15
Last Quarter
Sep 24
New
Oct 1
First Quarter

Today's Extremes

State Highs State Lows

Community

WunderPhotos

Upload Photos

1,749,670 photos uploaded!

WunderBlogs® & News

Nearby

Snow Depth

Station Depth Elevation
No new snow has been reported.

Earthquake Activity

City Distance Mag. Time & Date
No recent earthquake activity has been reported nearby.
Minimum magnitude displayed is 2.5.

Coastal Water Temperatures

Place Temperature
No Stations Reporting

Nearby Weather Stations